KANB/ANB METAR and TAF weather

Enter ICAO airport designator
Station Type Date Time Source
KANB METAR 2022/10/01 07:53 UTC NOAA

KANB 010753Z AUTO 00000KT 10SM CLR 09/07 A2989 RMK AO2 SLP118 T00890072


Station Type Date Time Source
KANB Decoded METAR 2022/10/01 07:53 UTC NOAA

ANNISTON METRO AIRPORT, AL, United States (KANB) 33-35N 085-51W 183M
Oct 01, 2022 - 03:53 AM EDT / 2022.10.01 0753 UTC
Wind: Calm:0
Visibility: 10 mile(s):0
Sky conditions: clear
Temperature: 48.0 F (8.9 C)
Dew Point: 45.0 F (7.2 C)
Relative Humidity: 89%
Pressure (altimeter): 29.89 in. Hg (1012 hPa)
ob: KANB 010753Z AUTO 00000KT 10SM CLR 09/07 A2989 RMK AO2 SLP118 T00890072
cycle: 8

Station Type Date Time Source
KANB TAF 2022/10/01 06:22 UTC NOAA

TAF KANB 010520Z 0106/0206 VRB03KT P6SM SKC
FM011600 34009KT P6SM SKC
FM020200 VRB03KT P6SM SKC

Example: see airport list